sensor_id;sensor_type;location;lat;lon;timestamp;P1;durP1;ratioP1;P2;durP2;ratioP2
75787;SDS011;64406;50.024;14.492;2023-08-12T00:01:31;3.65;;;2.90;;
75787;SDS011;64406;50.024;14.492;2023-08-12T00:03:57;4.07;;;3.33;;
75787;SDS011;64406;50.024;14.492;2023-08-12T00:06:22;4.63;;;3.15;;
75787;SDS011;64406;50.024;14.492;2023-08-12T00:08:48;4.72;;;3.55;;
75787;SDS011;64406;50.024;14.492;2023-08-12T00:11:14;3.50;;;2.83;;
75787;SDS011;64406;50.024;14.492;2023-08-12T00:13:39;4.95;;;3.30;;
75787;SDS011;64406;50.024;14.492;2023-08-12T00:16:05;4.85;;;3.22;;
75787;SDS011;64406;50.024;14.492;2023-08-12T00:18:31;4.25;;;3.47;;
75787;SDS011;64406;50.024;14.492;2023-08-12T00:21:06;5.55;;;3.22;;
75787;SDS011;64406;50.024;14.492;2023-08-12T00:23:32;5.53;;;3.22;;
75787;SDS011;64406;50.024;14.492;2023-08-12T00:25:58;3.60;;;3.08;;
75787;SDS011;64406;50.024;14.492;2023-08-12T00:28:24;5.93;;;4.13;;
75787;SDS011;64406;50.024;14.492;2023-08-12T00:30:49;6.80;;;3.60;;
75787;SDS011;64406;50.024;14.492;2023-08-12T00:33:15;5.70;;;4.03;;
75787;SDS011;64406;50.024;14.492;2023-08-12T00:35:41;3.88;;;3.42;;
75787;SDS011;64406;50.024;14.492;2023-08-12T00:38:06;5.55;;;3.83;;
75787;SDS011;64406;50.024;14.492;2023-08-12T00:40:32;4.97;;;3.83;;
75787;SDS011;64406;50.024;14.492;2023-08-12T00:42:57;9.30;;;3.97;;
75787;SDS011;64406;50.024;14.492;2023-08-12T00:45:23;5.15;;;3.60;;
75787;SDS011;64406;50.024;14.492;2023-08-12T00:47:49;5.63;;;4.00;;
75787;SDS011;64406;50.024;14.492;2023-08-12T00:50:14;4.50;;;3.97;;
75787;SDS011;64406;50.024;14.492;2023-08-12T00:52:41;6.30;;;3.92;;
75787;SDS011;64406;50.024;14.492;2023-08-12T00:55:07;7.88;;;4.75;;
75787;SDS011;64406;50.024;14.492;2023-08-12T00:57:32;4.78;;;3.85;;
75787;SDS011;64406;50.024;14.492;2023-08-12T00:59:59;7.45;;;3.55;;
75787;SDS011;64406;50.024;14.492;2023-08-12T01:02:25;8.52;;;4.07;;
75787;SDS011;64406;50.024;14.492;2023-08-12T01:04:50;5.68;;;3.90;;
75787;SDS011;64406;50.024;14.492;2023-08-12T01:07:16;6.90;;;3.53;;
75787;SDS011;64406;50.024;14.492;2023-08-12T01:09:42;4.45;;;3.30;;
75787;SDS011;64406;50.024;14.492;2023-08-12T01:12:17;4.38;;;3.50;;
75787;SDS011;64406;50.024;14.492;2023-08-12T01:15:01;4.40;;;3.78;;
75787;SDS011;64406;50.024;14.492;2023-08-12T01:17:33;3.42;;;2.90;;
75787;SDS011;64406;50.024;14.492;2023-08-12T01:20:02;5.40;;;3.58;;
75787;SDS011;64406;50.024;14.492;2023-08-12T01:22:33;5.32;;;3.35;;
75787;SDS011;64406;50.024;14.492;2023-08-12T01:25:02;8.75;;;3.53;;
75787;SDS011;64406;50.024;14.492;2023-08-12T01:27:27;4.22;;;3.25;;
75787;SDS011;64406;50.024;14.492;2023-08-12T01:29:53;4.20;;;3.67;;
75787;SDS011;64406;50.024;14.492;2023-08-12T01:34:50;6.15;;;3.28;;
75787;SDS011;64406;50.024;14.492;2023-08-12T01:37:23;4.53;;;3.65;;
75787;SDS011;64406;50.024;14.492;2023-08-12T01:39:52;4.28;;;3.45;;
75787;SDS011;64406;50.024;14.492;2023-08-12T01:42:20;7.68;;;4.22;;
75787;SDS011;64406;50.024;14.492;2023-08-12T01:44:46;5.93;;;3.80;;
75787;SDS011;64406;50.024;14.492;2023-08-12T01:47:13;6.47;;;3.85;;
75787;SDS011;64406;50.024;14.492;2023-08-12T01:49:39;4.80;;;3.17;;
75787;SDS011;64406;50.024;14.492;2023-08-12T01:52:04;6.38;;;3.97;;
75787;SDS011;64406;50.024;14.492;2023-08-12T01:54:30;8.52;;;3.30;;
75787;SDS011;64406;50.024;14.492;2023-08-12T01:57:05;8.73;;;4.85;;
75787;SDS011;64406;50.024;14.492;2023-08-12T01:59:32;5.22;;;4.03;;
75787;SDS011;64406;50.024;14.492;2023-08-12T02:01:57;5.78;;;3.78;;
75787;SDS011;64406;50.024;14.492;2023-08-12T02:04:23;7.07;;;3.90;;
75787;SDS011;64406;50.024;14.492;2023-08-12T02:06:49;5.32;;;3.60;;
75787;SDS011;64406;50.024;14.492;2023-08-12T02:09:15;7.47;;;3.72;;
75787;SDS011;64406;50.024;14.492;2023-08-12T02:11:40;4.72;;;3.40;;
75787;SDS011;64406;50.024;14.492;2023-08-12T02:14:06;5.70;;;3.60;;
75787;SDS011;64406;50.024;14.492;2023-08-12T02:16:32;4.47;;;3.25;;
75787;SDS011;64406;50.024;14.492;2023-08-12T02:18:57;4.93;;;3.58;;
75787;SDS011;64406;50.024;14.492;2023-08-12T02:21:23;4.28;;;3.60;;
75787;SDS011;64406;50.024;14.492;2023-08-12T02:23:48;4.82;;;4.18;;
75787;SDS011;64406;50.024;14.492;2023-08-12T02:26:15;6.88;;;3.78;;
75787;SDS011;64406;50.024;14.492;2023-08-12T02:28:41;5.20;;;3.60;;
75787;SDS011;64406;50.024;14.492;2023-08-12T02:31:06;6.25;;;3.67;;
75787;SDS011;64406;50.024;14.492;2023-08-12T02:33:32;5.18;;;3.17;;
75787;SDS011;64406;50.024;14.492;2023-08-12T02:35:57;6.40;;;3.67;;
75787;SDS011;64406;50.024;14.492;2023-08-12T02:38:23;4.75;;;3.58;;
75787;SDS011;64406;50.024;14.492;2023-08-12T02:40:49;3.15;;;2.85;;
75787;SDS011;64406;50.024;14.492;2023-08-12T02:43:15;7.72;;;3.83;;
75787;SDS011;64406;50.024;14.492;2023-08-12T02:45:41;4.80;;;3.70;;
75787;SDS011;64406;50.024;14.492;2023-08-12T02:48:08;5.13;;;3.63;;
75787;SDS011;64406;50.024;14.492;2023-08-12T02:50:35;9.38;;;4.22;;
75787;SDS011;64406;50.024;14.492;2023-08-12T02:53:01;5.03;;;3.17;;
75787;SDS011;64406;50.024;14.492;2023-08-12T02:55:27;7.20;;;3.80;;
75787;SDS011;64406;50.024;14.492;2023-08-12T02:57:54;5.15;;;3.50;;
75787;SDS011;64406;50.024;14.492;2023-08-12T03:00:20;6.32;;;3.60;;
75787;SDS011;64406;50.024;14.492;2023-08-12T03:02:46;5.25;;;3.85;;
75787;SDS011;64406;50.024;14.492;2023-08-12T03:05:11;3.85;;;3.42;;
75787;SDS011;64406;50.024;14.492;2023-08-12T03:07:37;4.90;;;3.20;;
75787;SDS011;64406;50.024;14.492;2023-08-12T03:10:03;4.90;;;3.65;;
75787;SDS011;64406;50.024;14.492;2023-08-12T03:12:29;4.80;;;3.55;;
75787;SDS011;64406;50.024;14.492;2023-08-12T03:14:54;5.93;;;3.28;;
75787;SDS011;64406;50.024;14.492;2023-08-12T03:17:20;5.07;;;3.88;;
75787;SDS011;64406;50.024;14.492;2023-08-12T03:19:46;5.20;;;3.72;;
75787;SDS011;64406;50.024;14.492;2023-08-12T03:22:11;5.57;;;3.35;;
75787;SDS011;64406;50.024;14.492;2023-08-12T03:24:37;7.32;;;4.00;;
75787;SDS011;64406;50.024;14.492;2023-08-12T03:27:03;4.47;;;3.53;;
75787;SDS011;64406;50.024;14.492;2023-08-12T03:29:28;4.75;;;4.00;;
75787;SDS011;64406;50.024;14.492;2023-08-12T03:31:54;6.47;;;4.00;;
75787;SDS011;64406;50.024;14.492;2023-08-12T03:34:19;5.20;;;3.70;;
75787;SDS011;64406;50.024;14.492;2023-08-12T03:36:45;5.28;;;4.05;;
75787;SDS011;64406;50.024;14.492;2023-08-12T03:39:13;5.25;;;3.83;;
75787;SDS011;64406;50.024;14.492;2023-08-12T03:41:39;4.72;;;3.55;;
75787;SDS011;64406;50.024;14.492;2023-08-12T03:44:05;4.38;;;3.97;;
75787;SDS011;64406;50.024;14.492;2023-08-12T03:46:31;5.55;;;4.13;;
75787;SDS011;64406;50.024;14.492;2023-08-12T03:48:56;4.78;;;4.03;;
75787;SDS011;64406;50.024;14.492;2023-08-12T03:51:22;6.63;;;3.85;;
75787;SDS011;64406;50.024;14.492;2023-08-12T03:53:47;5.20;;;3.72;;
75787;SDS011;64406;50.024;14.492;2023-08-12T03:56:13;5.47;;;3.85;;
75787;SDS011;64406;50.024;14.492;2023-08-12T03:58:41;5.38;;;3.97;;
75787;SDS011;64406;50.024;14.492;2023-08-12T04:01:07;5.00;;;3.72;;
75787;SDS011;64406;50.024;14.492;2023-08-12T04:03:33;6.75;;;4.63;;
75787;SDS011;64406;50.024;14.492;2023-08-12T04:05:59;8.93;;;3.70;;
75787;SDS011;64406;50.024;14.492;2023-08-12T04:08:24;4.80;;;3.80;;
75787;SDS011;64406;50.024;14.492;2023-08-12T04:10:53;5.47;;;4.00;;
75787;SDS011;64406;50.024;14.492;2023-08-12T04:13:18;7.05;;;4.18;;
75787;SDS011;64406;50.024;14.492;2023-08-12T04:15:49;6.15;;;4.13;;
75787;SDS011;64406;50.024;14.492;2023-08-12T04:18:16;6.28;;;4.38;;
75787;SDS011;64406;50.024;14.492;2023-08-12T04:20:42;4.53;;;3.60;;
75787;SDS011;64406;50.024;14.492;2023-08-12T04:23:10;6.53;;;4.18;;
75787;SDS011;64406;50.024;14.492;2023-08-12T04:25:36;4.97;;;4.00;;
75787;SDS011;64406;50.024;14.492;2023-08-12T04:28:01;4.70;;;4.10;;
75787;SDS011;64406;50.024;14.492;2023-08-12T04:30:27;7.90;;;4.70;;
75787;SDS011;64406;50.024;14.492;2023-08-12T04:32:52;9.07;;;4.07;;
75787;SDS011;64406;50.024;14.492;2023-08-12T04:35:18;6.32;;;4.15;;
75787;SDS011;64406;50.024;14.492;2023-08-12T04:37:44;5.53;;;4.38;;
75787;SDS011;64406;50.024;14.492;2023-08-12T04:40:09;7.32;;;4.70;;
75787;SDS011;64406;50.024;14.492;2023-08-12T04:42:36;5.90;;;4.63;;
75787;SDS011;64406;50.024;14.492;2023-08-12T04:45:02;6.10;;;4.30;;
75787;SDS011;64406;50.024;14.492;2023-08-12T04:47:28;7.10;;;3.88;;
75787;SDS011;64406;50.024;14.492;2023-08-12T04:49:54;6.00;;;4.53;;
75787;SDS011;64406;50.024;14.492;2023-08-12T04:52:20;8.85;;;4.85;;
75787;SDS011;64406;50.024;14.492;2023-08-12T04:54:46;7.07;;;5.13;;
75787;SDS011;64406;50.024;14.492;2023-08-12T04:57:11;6.57;;;4.47;;
75787;SDS011;64406;50.024;14.492;2023-08-12T04:59:37;6.65;;;4.65;;
75787;SDS011;64406;50.024;14.492;2023-08-12T05:02:03;6.70;;;5.18;;
75787;SDS011;64406;50.024;14.492;2023-08-12T05:04:28;7.95;;;5.35;;
75787;SDS011;64406;50.024;14.492;2023-08-12T05:06:54;8.20;;;5.45;;
75787;SDS011;64406;50.024;14.492;2023-08-12T05:09:20;7.65;;;5.38;;
75787;SDS011;64406;50.024;14.492;2023-08-12T05:11:45;10.40;;;4.95;;
75787;SDS011;64406;50.024;14.492;2023-08-12T05:14:11;5.45;;;4.85;;
75787;SDS011;64406;50.024;14.492;2023-08-12T05:16:36;5.57;;;4.78;;
75787;SDS011;64406;50.024;14.492;2023-08-12T05:19:02;6.68;;;5.07;;
75787;SDS011;64406;50.024;14.492;2023-08-12T05:21:28;11.00;;;5.15;;
75787;SDS011;64406;50.024;14.492;2023-08-12T05:23:53;5.88;;;4.70;;
75787;SDS011;64406;50.024;14.492;2023-08-12T05:26:19;7.78;;;4.97;;
75787;SDS011;64406;50.024;14.492;2023-08-12T05:28:46;9.38;;;4.95;;
75787;SDS011;64406;50.024;14.492;2023-08-12T05:31:11;6.40;;;4.82;;
75787;SDS011;64406;50.024;14.492;2023-08-12T05:33:37;8.75;;;4.93;;
75787;SDS011;64406;50.024;14.492;2023-08-12T05:36:03;8.48;;;4.28;;
75787;SDS011;64406;50.024;14.492;2023-08-12T05:38:28;6.68;;;4.60;;
75787;SDS011;64406;50.024;14.492;2023-08-12T05:40:54;4.93;;;4.38;;
75787;SDS011;64406;50.024;14.492;2023-08-12T05:43:20;5.40;;;3.90;;
75787;SDS011;64406;50.024;14.492;2023-08-12T05:45:45;7.22;;;4.20;;
75787;SDS011;64406;50.024;14.492;2023-08-12T05:48:11;7.25;;;4.38;;
75787;SDS011;64406;50.024;14.492;2023-08-12T05:50:37;8.25;;;4.55;;
75787;SDS011;64406;50.024;14.492;2023-08-12T05:53:02;6.05;;;4.80;;
75787;SDS011;64406;50.024;14.492;2023-08-12T05:55:28;5.55;;;4.25;;
75787;SDS011;64406;50.024;14.492;2023-08-12T05:57:54;4.55;;;3.95;;
75787;SDS011;64406;50.024;14.492;2023-08-12T06:00:19;5.53;;;4.60;;
75787;SDS011;64406;50.024;14.492;2023-08-12T06:02:45;4.85;;;4.20;;
75787;SDS011;64406;50.024;14.492;2023-08-12T06:05:10;6.22;;;4.25;;
75787;SDS011;64406;50.024;14.492;2023-08-12T06:07:36;8.00;;;4.63;;
75787;SDS011;64406;50.024;14.492;2023-08-12T06:10:02;4.70;;;3.80;;
75787;SDS011;64406;50.024;14.492;2023-08-12T06:12:28;5.35;;;4.75;;
75787;SDS011;64406;50.024;14.492;2023-08-12T06:14:54;5.72;;;4.57;;
75787;SDS011;64406;50.024;14.492;2023-08-12T06:17:19;7.93;;;4.28;;
75787;SDS011;64406;50.024;14.492;2023-08-12T06:19:45;5.93;;;4.00;;
75787;SDS011;64406;50.024;14.492;2023-08-12T06:22:11;12.20;;;4.63;;
75787;SDS011;64406;50.024;14.492;2023-08-12T06:24:37;5.07;;;4.40;;
75787;SDS011;64406;50.024;14.492;2023-08-12T06:27:02;5.40;;;4.20;;
75787;SDS011;64406;50.024;14.492;2023-08-12T06:29:28;4.60;;;4.10;;
75787;SDS011;64406;50.024;14.492;2023-08-12T06:31:53;7.70;;;4.20;;
75787;SDS011;64406;50.024;14.492;2023-08-12T06:34:19;5.10;;;4.32;;
75787;SDS011;64406;50.024;14.492;2023-08-12T06:36:45;6.40;;;4.63;;
75787;SDS011;64406;50.024;14.492;2023-08-12T06:39:10;18.17;;;4.13;;
75787;SDS011;64406;50.024;14.492;2023-08-12T06:41:36;6.32;;;4.43;;
75787;SDS011;64406;50.024;14.492;2023-08-12T06:44:02;4.72;;;3.85;;
75787;SDS011;64406;50.024;14.492;2023-08-12T06:46:29;6.13;;;3.53;;
75787;SDS011;64406;50.024;14.492;2023-08-12T06:48:56;3.78;;;3.47;;
75787;SDS011;64406;50.024;14.492;2023-08-12T06:51:21;5.15;;;4.05;;
75787;SDS011;64406;50.024;14.492;2023-08-12T06:53:47;6.82;;;3.78;;
75787;SDS011;64406;50.024;14.492;2023-08-12T06:56:12;6.32;;;4.05;;
75787;SDS011;64406;50.024;14.492;2023-08-12T06:58:38;6.93;;;3.63;;
75787;SDS011;64406;50.024;14.492;2023-08-12T07:01:04;4.13;;;3.72;;
75787;SDS011;64406;50.024;14.492;2023-08-12T07:03:29;6.00;;;4.10;;
75787;SDS011;64406;50.024;14.492;2023-08-12T07:05:55;5.75;;;3.80;;
75787;SDS011;64406;50.024;14.492;2023-08-12T07:08:21;6.75;;;4.03;;
75787;SDS011;64406;50.024;14.492;2023-08-12T07:10:47;4.10;;;3.63;;
75787;SDS011;64406;50.024;14.492;2023-08-12T07:13:12;3.88;;;3.47;;
75787;SDS011;64406;50.024;14.492;2023-08-12T07:15:38;5.05;;;3.65;;
75787;SDS011;64406;50.024;14.492;2023-08-12T07:18:04;5.65;;;4.20;;
75787;SDS011;64406;50.024;14.492;2023-08-12T07:20:30;5.30;;;4.03;;
75787;SDS011;64406;50.024;14.492;2023-08-12T07:22:55;4.57;;;3.75;;
75787;SDS011;64406;50.024;14.492;2023-08-12T07:25:21;4.15;;;3.40;;
75787;SDS011;64406;50.024;14.492;2023-08-12T07:27:46;9.05;;;3.78;;
75787;SDS011;64406;50.024;14.492;2023-08-12T07:30:12;5.53;;;3.35;;
75787;SDS011;64406;50.024;14.492;2023-08-12T07:32:38;5.07;;;3.08;;
75787;SDS011;64406;50.024;14.492;2023-08-12T07:35:04;5.43;;;3.30;;
75787;SDS011;64406;50.024;14.492;2023-08-12T07:37:31;4.07;;;2.95;;
75787;SDS011;64406;50.024;14.492;2023-08-12T07:39:57;4.28;;;2.85;;
75787;SDS011;64406;50.024;14.492;2023-08-12T07:42:23;3.85;;;3.45;;
75787;SDS011;64406;50.024;14.492;2023-08-12T07:44:49;5.45;;;3.40;;
75787;SDS011;64406;50.024;14.492;2023-08-12T07:47:14;3.63;;;3.28;;
75787;SDS011;64406;50.024;14.492;2023-08-12T07:49:43;5.25;;;3.30;;
75787;SDS011;64406;50.024;14.492;2023-08-12T07:52:09;6.35;;;2.85;;
75787;SDS011;64406;50.024;14.492;2023-08-12T07:54:35;4.25;;;3.15;;
75787;SDS011;64406;50.024;14.492;2023-08-12T07:57:00;3.85;;;3.05;;
75787;SDS011;64406;50.024;14.492;2023-08-12T07:59:26;5.43;;;3.28;;
75787;SDS011;64406;50.024;14.492;2023-08-12T08:01:52;4.85;;;3.17;;
75787;SDS011;64406;50.024;14.492;2023-08-12T08:04:17;4.20;;;2.92;;
75787;SDS011;64406;50.024;14.492;2023-08-12T08:06:43;3.85;;;2.92;;
75787;SDS011;64406;50.024;14.492;2023-08-12T08:09:09;3.28;;;2.83;;
75787;SDS011;64406;50.024;14.492;2023-08-12T08:11:36;4.38;;;2.67;;
75787;SDS011;64406;50.024;14.492;2023-08-12T08:14:01;3.58;;;2.47;;
75787;SDS011;64406;50.024;14.492;2023-08-12T08:16:27;3.30;;;3.00;;
75787;SDS011;64406;50.024;14.492;2023-08-12T08:18:53;5.13;;;2.90;;
75787;SDS011;64406;50.024;14.492;2023-08-12T08:21:19;5.28;;;3.28;;
75787;SDS011;64406;50.024;14.492;2023-08-12T08:23:44;4.85;;;3.20;;
75787;SDS011;64406;50.024;14.492;2023-08-12T08:26:10;3.80;;;3.30;;
75787;SDS011;64406;50.024;14.492;2023-08-12T08:28:35;5.88;;;2.97;;
75787;SDS011;64406;50.024;14.492;2023-08-12T08:31:01;3.88;;;2.60;;
75787;SDS011;64406;50.024;14.492;2023-08-12T08:33:26;3.33;;;2.70;;
75787;SDS011;64406;50.024;14.492;2023-08-12T08:35:53;3.47;;;2.50;;
75787;SDS011;64406;50.024;14.492;2023-08-12T08:38:19;4.05;;;2.60;;
75787;SDS011;64406;50.024;14.492;2023-08-12T08:40:45;2.70;;;2.50;;
75787;SDS011;64406;50.024;14.492;2023-08-12T08:43:10;3.85;;;2.60;;
75787;SDS011;64406;50.024;14.492;2023-08-12T08:45:40;2.63;;;2.25;;
75787;SDS011;64406;50.024;14.492;2023-08-12T08:48:08;3.55;;;2.33;;
75787;SDS011;64406;50.024;14.492;2023-08-12T08:50:36;3.15;;;2.15;;
75787;SDS011;64406;50.024;14.492;2023-08-12T08:53:02;3.40;;;2.50;;
75787;SDS011;64406;50.024;14.492;2023-08-12T08:55:31;2.72;;;2.28;;
75787;SDS011;64406;50.024;14.492;2023-08-12T08:57:57;2.35;;;1.92;;
75787;SDS011;64406;50.024;14.492;2023-08-12T09:00:24;3.50;;;2.50;;
75787;SDS011;64406;50.024;14.492;2023-08-12T09:02:50;3.00;;;2.40;;
75787;SDS011;64406;50.024;14.492;2023-08-12T09:05:18;5.10;;;2.33;;
75787;SDS011;64406;50.024;14.492;2023-08-12T09:07:45;2.90;;;2.17;;
75787;SDS011;64406;50.024;14.492;2023-08-12T09:10:12;3.10;;;2.40;;
75787;SDS011;64406;50.024;14.492;2023-08-12T09:12:38;3.45;;;2.42;;
75787;SDS011;64406;50.024;14.492;2023-08-12T09:15:06;2.58;;;2.10;;
75787;SDS011;64406;50.024;14.492;2023-08-12T09:17:32;3.15;;;2.28;;
75787;SDS011;64406;50.024;14.492;2023-08-12T09:19:58;3.03;;;2.42;;
75787;SDS011;64406;50.024;14.492;2023-08-12T09:22:25;2.47;;;2.25;;
75787;SDS011;64406;50.024;14.492;2023-08-12T09:24:57;4.13;;;2.20;;
75787;SDS011;64406;50.024;14.492;2023-08-12T09:27:23;2.60;;;2.03;;
75787;SDS011;64406;50.024;14.492;2023-08-12T09:29:50;2.88;;;2.45;;
75787;SDS011;64406;50.024;14.492;2023-08-12T09:32:20;4.38;;;2.50;;
75787;SDS011;64406;50.024;14.492;2023-08-12T09:34:55;2.67;;;2.00;;
75787;SDS011;64406;50.024;14.492;2023-08-12T09:37:22;5.20;;;2.40;;
75787;SDS011;64406;50.024;14.492;2023-08-12T09:39:50;4.93;;;2.22;;
75787;SDS011;64406;50.024;14.492;2023-08-12T09:42:16;3.72;;;2.35;;
75787;SDS011;64406;50.024;14.492;2023-08-12T09:44:43;2.60;;;2.30;;
75787;SDS011;64406;50.024;14.492;2023-08-12T09:47:09;2.88;;;2.33;;
75787;SDS011;64406;50.024;14.492;2023-08-12T09:49:36;3.88;;;2.22;;
75787;SDS011;64406;50.024;14.492;2023-08-12T09:52:03;2.72;;;1.90;;
75787;SDS011;64406;50.024;14.492;2023-08-12T09:54:33;2.60;;;1.98;;
75787;SDS011;64406;50.024;14.492;2023-08-12T09:57:00;2.17;;;1.98;;
75787;SDS011;64406;50.024;14.492;2023-08-12T09:59:29;3.38;;;2.20;;
75787;SDS011;64406;50.024;14.492;2023-08-12T10:01:57;3.10;;;1.85;;
75787;SDS011;64406;50.024;14.492;2023-08-12T10:04:26;5.97;;;1.85;;
75787;SDS011;64406;50.024;14.492;2023-08-12T10:06:54;2.08;;;1.90;;
75787;SDS011;64406;50.024;14.492;2023-08-12T10:09:19;2.67;;;1.92;;
75787;SDS011;64406;50.024;14.492;2023-08-12T10:11:46;3.83;;;1.70;;
75787;SDS011;64406;50.024;14.492;2023-08-12T10:14:13;2.05;;;1.83;;
75787;SDS011;64406;50.024;14.492;2023-08-12T10:16:39;3.70;;;1.92;;
75787;SDS011;64406;50.024;14.492;2023-08-12T10:19:11;3.08;;;1.98;;
75787;SDS011;64406;50.024;14.492;2023-08-12T10:21:37;2.65;;;1.90;;
75787;SDS011;64406;50.024;14.492;2023-08-12T10:24:03;3.22;;;1.60;;
75787;SDS011;64406;50.024;14.492;2023-08-12T10:26:30;5.57;;;2.20;;
75787;SDS011;64406;50.024;14.492;2023-08-12T10:28:59;6.45;;;2.22;;
75787;SDS011;64406;50.024;14.492;2023-08-12T10:31:26;4.35;;;2.03;;
75787;SDS011;64406;50.024;14.492;2023-08-12T10:33:53;1.92;;;1.80;;
75787;SDS011;64406;50.024;14.492;2023-08-12T10:36:20;2.80;;;1.85;;
75787;SDS011;64406;50.024;14.492;2023-08-12T10:38:47;1.92;;;1.60;;
75787;SDS011;64406;50.024;14.492;2023-08-12T10:41:19;1.70;;;1.60;;
75787;SDS011;64406;50.024;14.492;2023-08-12T10:46:28;1.60;;;1.30;;
75787;SDS011;64406;50.024;14.492;2023-08-12T10:49:02;2.35;;;2.03;;
75787;SDS011;64406;50.024;14.492;2023-08-12T10:54:25;2.95;;;1.75;;
75787;SDS011;64406;50.024;14.492;2023-08-12T10:59:50;2.38;;;1.52;;
75787;SDS011;64406;50.024;14.492;2023-08-12T11:02:25;2.13;;;1.38;;
75787;SDS011;64406;50.024;14.492;2023-08-12T11:05:02;4.18;;;1.80;;
75787;SDS011;64406;50.024;14.492;2023-08-12T11:09:58;2.00;;;1.40;;
75787;SDS011;64406;50.024;14.492;2023-08-12T11:12:34;2.00;;;1.48;;
75787;SDS011;64406;50.024;14.492;2023-08-12T11:15:00;1.75;;;1.52;;
75787;SDS011;64406;50.024;14.492;2023-08-12T11:17:33;2.35;;;1.67;;
75787;SDS011;64406;50.024;14.492;2023-08-12T11:22:25;1.77;;;1.33;;
75787;SDS011;64406;50.024;14.492;2023-08-12T11:24:52;3.08;;;1.75;;
75787;SDS011;64406;50.024;14.492;2023-08-12T11:27:18;2.72;;;1.70;;
75787;SDS011;64406;50.024;14.492;2023-08-12T11:29:44;2.40;;;1.30;;
75787;SDS011;64406;50.024;14.492;2023-08-12T11:32:09;1.70;;;1.50;;
75787;SDS011;64406;50.024;14.492;2023-08-12T11:34:35;2.22;;;1.50;;
75787;SDS011;64406;50.024;14.492;2023-08-12T11:37:02;2.92;;;1.33;;
75787;SDS011;64406;50.024;14.492;2023-08-12T11:39:28;1.83;;;1.40;;
75787;SDS011;64406;50.024;14.492;2023-08-12T11:41:55;2.28;;;1.85;;
75787;SDS011;64406;50.024;14.492;2023-08-12T11:44:21;1.45;;;1.17;;
75787;SDS011;64406;50.024;14.492;2023-08-12T11:46:48;4.00;;;1.67;;
75787;SDS011;64406;50.024;14.492;2023-08-12T11:49:14;1.30;;;1.20;;
75787;SDS011;64406;50.024;14.492;2023-08-12T11:51:39;2.20;;;1.70;;
75787;SDS011;64406;50.024;14.492;2023-08-12T11:54:07;2.83;;;1.60;;
75787;SDS011;64406;50.024;14.492;2023-08-12T11:56:32;2.40;;;1.38;;
75787;SDS011;64406;50.024;14.492;2023-08-12T11:58:59;1.73;;;1.30;;
75787;SDS011;64406;50.024;14.492;2023-08-12T12:01:24;1.38;;;1.27;;
75787;SDS011;64406;50.024;14.492;2023-08-12T12:03:53;2.45;;;1.45;;
75787;SDS011;64406;50.024;14.492;2023-08-12T12:06:37;1.67;;;1.30;;
75787;SDS011;64406;50.024;14.492;2023-08-12T12:09:03;3.08;;;1.50;;
75787;SDS011;64406;50.024;14.492;2023-08-12T12:11:31;3.25;;;1.30;;
75787;SDS011;64406;50.024;14.492;2023-08-12T12:14:00;2.55;;;1.52;;
75787;SDS011;64406;50.024;14.492;2023-08-12T12:16:36;2.03;;;1.40;;
75787;SDS011;64406;50.024;14.492;2023-08-12T12:19:02;1.50;;;1.40;;
75787;SDS011;64406;50.024;14.492;2023-08-12T12:21:29;2.33;;;1.67;;
75787;SDS011;64406;50.024;14.492;2023-08-12T12:23:54;2.78;;;1.33;;
75787;SDS011;64406;50.024;14.492;2023-08-12T12:26:20;1.30;;;1.15;;
75787;SDS011;64406;50.024;14.492;2023-08-12T12:28:46;5.55;;;1.42;;
75787;SDS011;64406;50.024;14.492;2023-08-12T12:31:11;2.22;;;1.38;;
75787;SDS011;64406;50.024;14.492;2023-08-12T12:33:37;3.88;;;1.40;;
75787;SDS011;64406;50.024;14.492;2023-08-12T12:36:02;1.30;;;1.20;;
75787;SDS011;64406;50.024;14.492;2023-08-12T12:38:28;3.45;;;1.40;;
75787;SDS011;64406;50.024;14.492;2023-08-12T12:40:54;1.58;;;1.20;;
75787;SDS011;64406;50.024;14.492;2023-08-12T12:43:19;3.45;;;1.70;;
75787;SDS011;64406;50.024;14.492;2023-08-12T12:45:45;1.52;;;1.42;;
75787;SDS011;64406;50.024;14.492;2023-08-12T12:48:11;1.98;;;1.30;;
75787;SDS011;64406;50.024;14.492;2023-08-12T12:50:36;1.98;;;1.20;;
75787;SDS011;64406;50.024;14.492;2023-08-12T12:53:03;2.20;;;1.10;;
75787;SDS011;64406;50.024;14.492;2023-08-12T12:55:28;1.80;;;1.20;;
75787;SDS011;64406;50.024;14.492;2023-08-12T12:57:54;3.20;;;1.40;;
75787;SDS011;64406;50.024;14.492;2023-08-12T13:00:19;1.60;;;1.25;;
75787;SDS011;64406;50.024;14.492;2023-08-12T13:02:45;1.63;;;1.00;;
75787;SDS011;64406;50.024;14.492;2023-08-12T13:05:11;3.65;;;1.20;;
75787;SDS011;64406;50.024;14.492;2023-08-12T13:07:37;1.77;;;1.20;;
75787;SDS011;64406;50.024;14.492;2023-08-12T13:10:03;2.63;;;1.40;;
75787;SDS011;64406;50.024;14.492;2023-08-12T13:12:29;1.95;;;1.27;;
75787;SDS011;64406;50.024;14.492;2023-08-12T13:14:54;2.15;;;1.35;;
75787;SDS011;64406;50.024;14.492;2023-08-12T13:17:20;1.77;;;1.20;;
75787;SDS011;64406;50.024;14.492;2023-08-12T13:19:45;1.95;;;1.20;;
75787;SDS011;64406;50.024;14.492;2023-08-12T13:22:11;1.88;;;1.30;;
75787;SDS011;64406;50.024;14.492;2023-08-12T13:24:36;1.50;;;1.30;;
75787;SDS011;64406;50.024;14.492;2023-08-12T13:27:02;2.03;;;1.30;;
75787;SDS011;64406;50.024;14.492;2023-08-12T13:29:28;4.72;;;1.58;;
75787;SDS011;64406;50.024;14.492;2023-08-12T13:31:55;3.15;;;1.20;;
75787;SDS011;64406;50.024;14.492;2023-08-12T13:34:21;2.67;;;1.52;;
75787;SDS011;64406;50.024;14.492;2023-08-12T13:36:46;4.03;;;1.17;;
75787;SDS011;64406;50.024;14.492;2023-08-12T13:39:12;1.48;;;1.30;;
75787;SDS011;64406;50.024;14.492;2023-08-12T13:41:37;2.10;;;1.55;;
75787;SDS011;64406;50.024;14.492;2023-08-12T13:44:03;6.22;;;1.60;;
75787;SDS011;64406;50.024;14.492;2023-08-12T13:46:29;1.40;;;1.23;;
75787;SDS011;64406;50.024;14.492;2023-08-12T13:48:54;2.60;;;1.42;;
75787;SDS011;64406;50.024;14.492;2023-08-12T13:51:20;2.58;;;1.52;;
75787;SDS011;64406;50.024;14.492;2023-08-12T13:53:46;1.70;;;1.50;;
75787;SDS011;64406;50.024;14.492;2023-08-12T13:56:11;2.25;;;1.60;;
75787;SDS011;64406;50.024;14.492;2023-08-12T13:58:37;1.48;;;1.38;;
75787;SDS011;64406;50.024;14.492;2023-08-12T14:01:03;2.00;;;1.42;;
75787;SDS011;64406;50.024;14.492;2023-08-12T14:03:28;2.50;;;1.55;;
75787;SDS011;64406;50.024;14.492;2023-08-12T14:05:55;1.48;;;1.30;;
75787;SDS011;64406;50.024;14.492;2023-08-12T14:08:21;3.75;;;1.65;;
75787;SDS011;64406;50.024;14.492;2023-08-12T14:10:47;2.03;;;1.60;;
75787;SDS011;64406;50.024;14.492;2023-08-12T14:13:13;3.85;;;1.33;;
75787;SDS011;64406;50.024;14.492;2023-08-12T14:15:39;3.72;;;1.45;;
75787;SDS011;64406;50.024;14.492;2023-08-12T14:18:05;3.65;;;1.60;;
75787;SDS011;64406;50.024;14.492;2023-08-12T14:20:31;1.40;;;1.30;;
75787;SDS011;64406;50.024;14.492;2023-08-12T14:22:57;1.60;;;1.50;;
75787;SDS011;64406;50.024;14.492;2023-08-12T14:25:23;1.85;;;1.48;;
75787;SDS011;64406;50.024;14.492;2023-08-12T14:27:48;3.15;;;1.40;;
75787;SDS011;64406;50.024;14.492;2023-08-12T14:30:14;2.83;;;1.25;;
75787;SDS011;64406;50.024;14.492;2023-08-12T14:32:42;1.98;;;1.30;;
75787;SDS011;64406;50.024;14.492;2023-08-12T14:35:08;2.20;;;1.33;;
75787;SDS011;64406;50.024;14.492;2023-08-12T14:37:34;1.50;;;1.20;;
75787;SDS011;64406;50.024;14.492;2023-08-12T14:40:00;1.80;;;1.20;;
75787;SDS011;64406;50.024;14.492;2023-08-12T14:42:26;1.80;;;1.50;;
75787;SDS011;64406;50.024;14.492;2023-08-12T14:44:52;1.85;;;1.33;;